EDT,Max TemperatureF,Mean TemperatureF,Min TemperatureF,Max Dew PointF,MeanDew PointF,Min DewpointF,Max Humidity, Mean Humidity, Min Humidity, Max Sea Level PressureIn, Mean Sea Level PressureIn, Min Sea Level PressureIn, Max VisibilityMiles, Mean VisibilityMiles, Min VisibilityMiles, Max Wind SpeedMPH, Mean Wind SpeedMPH, Max Gust SpeedMPH,PrecipitationIn, CloudCover, Events, WindDirDegrees
2014-3-1,34,25,16,25,18,8,92,70,47,30.26,30.16,30.08,10,7,1,14,5,17,0.12,7,Snow,332
2014-3-2,20,15,9,18,8,3,92,76,59,30.36,30.28,30.21,10,6,1,20,7,24,0.14,7,Snow,43
2014-3-3,12,4,-4,3,-5,-10,80,67,53,30.51,30.46,30.37,10,10,5,15,5,21,0.00,0,,335
2014-3-4,21,9,-4,8,1,-7,87,66,45,30.45,30.34,30.25,10,10,10,8,2,12,0.00,6,,283
2014-3-5,23,16,8,12,9,5,83,70,56,30.51,30.41,30.27,10,10,5,18,9,24,T,6,Snow,61
2014-3-6,25,20,14,14,11,7,80,70,60,30.51,30.37,30.19,10,10,10,16,9,21,0.00,1,,71
2014-3-7,44,25,6,27,18,3,92,69,46,30.15,30.05,29.94,10,10,10,10,2,12,0.00,0,,242
2014-3-8,36,33,29,32,28,22,96,83,69,30.20,30.07,29.94,10,4,1,12,5,15,0.16,8,Rain-Snow,5
2014-3-9,37,27,16,26,19,14,92,73,54,30.28,30.14,29.88,10,10,10,21,10,31,0.00,2,,248
2014-3-10,49,43,36,38,33,26,86,73,60,29.89,29.73,29.63,10,10,10,25,16,35,T,3,,235
2014-3-11,53,45,36,39,36,31,100,78,56,29.71,29.68,29.65,10,9,4,17,7,22,T,4,,282
2014-3-12,40,24,8,36,23,2,100,83,66,30.05,29.67,29.52,10,5,0,30,16,40,0.73,6,Fog-Snow,14
2014-3-13,28,10,-4,17,2,-6,91,65,34,30.22,30.12,30.01,10,9,2,14,4,18,0.00,3,,239
2014-3-14,52,40,27,35,27,18,70,60,49,29.99,29.78,29.62,10,10,10,29,17,38,0.00,1,,222
2014-3-15,41,36,30,30,26,20,85,66,46,30.25,30.00,29.79,10,10,10,20,11,24,0.00,4,,284
2014-3-16,30,22,13,19,9,5,73,62,50,30.40,30.31,30.21,10,10,10,26,15,31,T,5,,48
2014-3-17,30,21,11,18,11,5,83,65,47,30.18,30.04,29.95,10,10,10,17,11,24,0.00,0,,63
2014-3-18,48,34,19,33,25,17,92,73,53,30.02,29.97,29.86,10,10,10,15,6,20,0.00,1,,90
2014-3-19,50,41,32,45,38,28,96,88,79,29.88,29.75,29.63,10,10,9,29,13,46,0.07,8,Rain,211
2014-3-20,44,35,26,34,27,22,92,69,45,30.09,29.97,29.87,10,9,4,24,12,30,T,7,Rain,271
2014-3-21,47,35,22,34,27,20,88,73,57,30.11,29.98,29.70,10,10,9,15,5,20,T,3,,109
2014-3-22,42,37,31,36,29,24,92,73,54,30.22,30.00,29.67,10,10,7,28,9,39,0.01,7,Rain,297
2014-3-23,31,26,20,23,10,5,68,55,42,30.38,30.33,30.20,10,10,10,18,10,26,0.00,4,,341
2014-3-24,33,25,16,12,10,5,80,59,38,30.38,30.28,30.13,10,10,10,21,7,25,0.00,3,,296
2014-3-25,33,25,16,25,17,7,88,69,50,30.20,30.01,29.95,10,6,1,25,11,32,0.03,6,Snow,277
2014-3-26,33,21,9,16,10,7,92,66,39,30.38,30.29,30.22,10,10,10,15,5,18,0.00,2,,270
2014-3-27,46,37,27,39,25,16,85,69,53,30.20,29.98,29.71,10,10,10,18,10,26,0.09,7,Rain,175
2014-3-28,51,45,38,45,38,31,83,75,66,30.19,29.85,29.61,10,10,10,38,16,48,0.01,8,Rain,253
2014-3-29,38,35,32,32,29,24,89,79,69,30.17,30.11,30.04,10,9,2,21,13,28,0.03,7,Snow,30
2014-3-30,51,39,26,25,22,17,81,54,26,30.22,30.17,30.13,10,10,10,14,7,20,0.00,1,,335
2014-3-31,63,45,27,34,28,22,85,57,29,30.22,30.13,29.97,10,10,10,13,5,18,0.00,0,,136